createdAt,value
2017-08-14T00:02:12.496Z,101680.83
2017-08-14T00:04:40.128Z,101679.44
2017-08-14T00:07:07.736Z,101675.72
2017-08-14T00:09:35.364Z,101680.09
2017-08-14T00:12:02.971Z,101676.31
2017-08-14T00:14:30.609Z,101673.80
2017-08-14T00:16:58.200Z,101671.05
2017-08-14T00:19:25.817Z,101675.84
2017-08-14T00:21:53.558Z,101670.89
2017-08-14T00:24:21.231Z,101669.53
2017-08-14T00:26:48.827Z,101666.94
2017-08-14T00:29:16.437Z,101671.39
2017-08-14T00:31:44.062Z,101675.39
2017-08-14T00:34:11.698Z,101672.98
2017-08-14T00:36:39.297Z,101675.68
2017-08-14T00:39:06.928Z,101671.19
2017-08-14T00:41:34.546Z,101670.77
2017-08-14T00:44:02.187Z,101668.67
2017-08-14T00:46:29.843Z,101671.30
2017-08-14T00:48:57.466Z,101672.17
2017-08-14T00:51:25.086Z,101668.70
2017-08-14T00:53:52.714Z,101667.33
2017-08-14T00:56:20.310Z,101667.91
2017-08-14T00:58:47.924Z,101667.41
2017-08-14T01:01:15.543Z,101670.00
2017-08-14T01:03:43.171Z,101664.92
2017-08-14T01:06:10.807Z,101661.83
2017-08-14T01:08:38.391Z,101663.63
2017-08-14T01:11:06.075Z,101659.95
2017-08-14T01:13:33.734Z,101660.23
2017-08-14T01:16:01.414Z,101653.33
2017-08-14T01:18:29.065Z,101655.79
2017-08-14T01:20:56.679Z,101650.79
2017-08-14T01:23:24.282Z,101646.83
2017-08-14T01:25:51.931Z,101653.09
2017-08-14T01:28:19.520Z,101651.73
2017-08-14T01:30:47.142Z,101648.20
2017-08-14T01:33:14.726Z,101646.18
2017-08-14T01:35:42.363Z,101644.27
2017-08-14T01:38:09.961Z,101643.98
2017-08-14T01:40:37.588Z,101647.45
2017-08-14T01:43:05.213Z,101642.45
2017-08-14T01:45:32.845Z,101639.60
2017-08-14T01:48:00.434Z,101640.19
2017-08-14T01:50:28.054Z,101641.53
2017-08-14T01:52:55.651Z,101632.49
2017-08-14T01:55:23.306Z,101627.88
2017-08-14T01:57:50.911Z,101631.08
2017-08-14T02:00:18.507Z,101627.86
2017-08-14T02:02:46.138Z,101622.95
2017-08-14T02:05:13.751Z,101628.23
2017-08-14T02:07:41.359Z,101629.51
2017-08-14T02:10:08.962Z,101621.55
2017-08-14T02:12:36.594Z,101626.41
2017-08-14T02:15:04.190Z,101618.75
2017-08-14T02:17:31.830Z,101623.50
2017-08-14T02:19:59.421Z,101617.47
2017-08-14T02:22:27.058Z,101621.44
2017-08-14T02:24:54.697Z,101622.80
2017-08-14T02:27:22.330Z,101622.29
2017-08-14T02:29:49.932Z,101619.18
2017-08-14T02:32:17.552Z,101615.81
2017-08-14T02:34:45.148Z,101617.17
2017-08-14T02:37:12.782Z,101612.19
2017-08-14T02:39:40.414Z,101606.22
2017-08-14T02:42:08.034Z,101603.93
2017-08-14T02:44:35.622Z,101610.13
2017-08-14T02:47:03.245Z,101610.69
2017-08-14T02:49:30.865Z,101605.56
2017-08-14T02:51:58.566Z,101607.06
2017-08-14T02:54:26.155Z,101607.30
2017-08-14T02:56:53.777Z,101603.53
2017-08-14T02:59:21.374Z,101602.31
2017-08-14T03:01:49.001Z,101606.37
2017-08-14T03:04:16.598Z,101607.35
2017-08-14T03:06:44.258Z,101606.95
2017-08-14T03:09:11.845Z,101599.27
2017-08-14T03:11:39.495Z,101603.88
2017-08-14T03:14:07.196Z,101610.49
2017-08-14T03:16:34.833Z,101603.88
2017-08-14T03:19:02.441Z,101602.80
2017-08-14T03:21:30.113Z,101602.28
2017-08-14T03:23:57.725Z,101604.81
2017-08-14T03:26:25.422Z,101599.03
2017-08-14T03:28:53.031Z,101599.31
2017-08-14T03:31:20.658Z,101596.33
2017-08-14T03:33:48.267Z,101589.85
2017-08-14T03:36:15.909Z,101591.48
2017-08-14T03:38:43.555Z,101585.53
2017-08-14T03:41:11.174Z,101583.52
2017-08-14T03:43:38.843Z,101577.84
2017-08-14T03:46:06.450Z,101576.77
2017-08-14T03:48:34.142Z,101575.38
2017-08-14T03:51:01.775Z,101572.68
2017-08-14T03:53:29.395Z,101576.31
2017-08-14T03:55:56.998Z,101574.45
2017-08-14T03:58:24.647Z,101578.36
2017-08-14T04:00:52.310Z,101575.52
2017-08-14T04:03:20.027Z,101569.98
2017-08-14T04:05:47.622Z,101575.27
2017-08-14T04:08:15.266Z,101575.10
2017-08-14T04:10:42.891Z,101576.87
2017-08-14T04:13:10.576Z,101569.42
2017-08-14T04:15:38.162Z,101571.61
2017-08-14T04:18:05.802Z,101580.40
2017-08-14T04:20:33.398Z,101570.12
2017-08-14T04:23:01.086Z,101577.04
2017-08-14T04:25:28.675Z,101577.45
2017-08-14T04:27:56.316Z,101578.80
2017-08-14T04:30:23.924Z,101576.92
2017-08-14T04:32:51.537Z,101575.28
2017-08-14T04:35:19.186Z,101577.58
2017-08-14T04:37:46.884Z,101577.86
2017-08-14T04:40:14.490Z,101578.80
2017-08-14T04:42:42.150Z,101575.02
2017-08-14T04:45:09.750Z,101582.98
2017-08-14T04:47:37.370Z,101577.17
2017-08-14T04:50:05.029Z,101581.91
2017-08-14T04:52:32.646Z,101580.14
2017-08-14T04:55:00.258Z,101584.05
2017-08-14T04:57:27.893Z,101578.38
2017-08-14T04:59:55.546Z,101578.52
2017-08-14T05:02:23.190Z,101581.64
2017-08-14T05:04:50.801Z,101585.00
2017-08-14T05:07:18.450Z,101590.26
2017-08-14T05:09:46.162Z,101586.63
2017-08-14T05:12:13.802Z,101582.30
2017-08-14T05:14:41.406Z,101577.15
2017-08-14T05:17:09.143Z,101585.11
2017-08-14T05:19:36.734Z,101578.63
2017-08-14T05:22:04.355Z,101574.15
2017-08-14T05:24:31.986Z,101576.57
2017-08-14T05:26:59.580Z,101579.13
2017-08-14T05:29:27.197Z,101582.39
2017-08-14T05:31:54.837Z,101583.88
2017-08-14T05:34:22.434Z,101583.02
2017-08-14T05:36:50.070Z,101577.32
2017-08-14T05:39:17.690Z,101580.39
2017-08-14T05:41:45.278Z,101580.08
2017-08-14T05:44:12.935Z,101582.08
2017-08-14T05:46:40.525Z,101580.85
2017-08-14T05:49:08.233Z,101585.57
2017-08-14T05:51:35.852Z,101582.19
2017-08-14T05:54:03.513Z,101583.91
2017-08-14T05:56:31.119Z,101580.94
2017-08-14T05:58:58.754Z,101581.50
2017-08-14T06:01:26.354Z,101579.37
2017-08-14T06:03:53.982Z,101580.30
2017-08-14T06:06:21.640Z,101580.02
2017-08-14T06:08:49.278Z,101580.16
2017-08-14T06:11:16.870Z,101581.51
2017-08-14T06:13:44.506Z,101581.20
2017-08-14T06:16:12.095Z,101582.11
2017-08-14T06:18:39.736Z,101583.01
2017-08-14T06:21:07.342Z,101579.58
2017-08-14T06:23:34.973Z,101580.30
2017-08-14T06:26:02.595Z,101577.80
2017-08-14T06:28:30.214Z,101582.08
2017-08-14T06:30:57.823Z,101575.34
2017-08-14T06:33:25.481Z,101588.31
2017-08-14T06:35:53.080Z,101588.45
2017-08-14T06:38:20.672Z,101590.36
2017-08-14T06:40:48.299Z,101589.27
2017-08-14T06:43:15.898Z,101589.68
2017-08-14T06:45:43.519Z,101587.88
2017-08-14T06:48:11.136Z,101587.72
2017-08-14T06:50:38.771Z,101592.05
2017-08-14T06:53:06.367Z,101598.02
2017-08-14T06:55:33.998Z,101597.43
2017-08-14T06:58:01.590Z,101592.80
2017-08-14T07:00:29.219Z,101590.72
2017-08-14T07:02:56.806Z,101587.68
2017-08-14T07:05:24.440Z,101592.43
2017-08-14T07:07:52.030Z,101587.06
2017-08-14T07:10:19.670Z,101597.09
2017-08-14T07:12:47.301Z,101588.27
2017-08-14T07:15:14.927Z,101587.75
2017-08-14T07:17:42.536Z,101589.46
2017-08-14T07:20:10.182Z,101588.78
2017-08-14T07:22:37.793Z,101585.03
2017-08-14T07:25:05.459Z,101586.80
2017-08-14T07:27:33.038Z,101584.33
2017-08-14T07:30:00.662Z,101589.97
2017-08-14T07:32:28.262Z,101587.23
2017-08-14T07:34:55.915Z,101583.92
2017-08-14T07:37:23.539Z,101590.33
2017-08-14T07:39:51.218Z,101584.92
2017-08-14T07:42:18.962Z,101580.24
2017-08-14T07:44:46.698Z,101581.55
2017-08-14T07:47:14.300Z,101576.51
2017-08-14T07:49:41.942Z,101573.20
2017-08-14T07:52:09.539Z,101569.34
2017-08-14T07:54:37.242Z,101561.63
2017-08-14T07:57:04.861Z,101563.36
2017-08-14T07:59:32.495Z,101568.25
2017-08-14T08:02:00.163Z,101563.89
2017-08-14T08:04:27.847Z,101564.12
2017-08-14T08:06:55.440Z,101565.56
2017-08-14T08:09:23.070Z,101563.13
2017-08-14T08:11:50.704Z,101556.14
2017-08-14T08:14:18.315Z,101552.79
2017-08-14T08:16:45.928Z,101558.80
2017-08-14T08:19:13.543Z,101550.55
2017-08-14T08:21:41.132Z,101547.03
2017-08-14T08:24:08.791Z,101550.77
2017-08-14T08:26:36.383Z,101550.22
2017-08-14T08:29:04.014Z,101552.02
2017-08-14T08:31:31.622Z,101548.66
2017-08-14T08:33:59.236Z,101548.88
2017-08-14T08:36:26.832Z,101548.53
2017-08-14T08:38:54.503Z,101547.30
2017-08-14T08:41:22.099Z,101549.13
2017-08-14T08:43:49.696Z,101553.41
2017-08-14T08:46:17.327Z,101549.89
2017-08-14T08:48:44.954Z,101554.87
2017-08-14T08:51:12.539Z,101550.64
2017-08-14T08:53:40.188Z,101549.55
2017-08-14T08:56:07.798Z,101545.28
2017-08-14T08:58:35.400Z,101547.70
2017-08-14T09:01:03.022Z,101545.77
2017-08-14T09:03:30.621Z,101545.45
2017-08-14T09:05:58.323Z,101544.72
2017-08-14T09:08:25.919Z,101543.27
2017-08-14T09:10:53.537Z,101539.42
2017-08-14T09:13:21.142Z,101535.34
2017-08-14T09:15:48.762Z,101534.82
2017-08-14T09:18:16.357Z,101540.68
2017-08-14T09:20:43.986Z,101534.80
2017-08-14T09:23:11.586Z,101530.08
2017-08-14T09:25:39.341Z,101532.11
2017-08-14T09:28:06.942Z,101535.05
2017-08-14T09:30:34.544Z,101527.20
2017-08-14T09:33:02.153Z,101528.80
2017-08-14T09:35:29.754Z,101526.26
2017-08-14T09:37:57.377Z,101522.20
2017-08-14T09:40:24.987Z,101521.70
2017-08-14T09:42:52.621Z,101522.92
2017-08-14T09:45:20.214Z,101508.35
2017-08-14T09:47:47.855Z,101517.69
2017-08-14T09:50:15.442Z,101516.62
2017-08-14T09:52:43.063Z,101511.98
2017-08-14T09:55:10.655Z,101510.69
2017-08-14T09:57:38.282Z,101507.73
2017-08-14T10:00:05.866Z,101503.48
2017-08-14T10:02:33.487Z,101501.26
2017-08-14T10:05:01.071Z,101496.87
2017-08-14T10:07:28.719Z,101497.96
2017-08-14T10:09:56.318Z,101493.47
2017-08-14T10:12:23.951Z,101492.15
2017-08-14T10:14:51.579Z,101486.36
2017-08-14T10:17:19.219Z,101483.69
2017-08-14T10:19:46.809Z,101477.55
2017-08-14T10:22:14.490Z,101472.81
2017-08-14T10:24:42.103Z,101484.37
2017-08-14T10:27:09.739Z,101474.38
2017-08-14T10:29:37.370Z,101470.84
2017-08-14T10:32:04.982Z,101476.58
2017-08-14T10:34:32.606Z,101472.35
2017-08-14T10:37:00.215Z,101469.98
2017-08-14T10:39:27.909Z,101474.26
2017-08-14T10:41:55.511Z,101470.30
2017-08-14T10:44:23.123Z,101464.84
2017-08-14T10:46:50.729Z,101461.23
2017-08-14T10:49:18.407Z,101460.17
2017-08-14T10:51:46.000Z,101451.87
2017-08-14T10:54:13.620Z,101451.58
2017-08-14T10:56:41.209Z,101450.09
2017-08-14T10:59:08.826Z,101455.69
2017-08-14T11:01:36.439Z,101453.27
2017-08-14T11:04:04.066Z,101454.37
2017-08-14T11:06:31.658Z,101446.69
2017-08-14T11:08:59.287Z,101444.53
2017-08-14T11:11:26.884Z,101440.94
2017-08-14T11:13:54.499Z,101436.56
2017-08-14T11:16:22.127Z,101433.98
2017-08-14T11:18:49.742Z,101425.59
2017-08-14T11:21:17.370Z,101426.23
2017-08-14T11:23:45.006Z,101421.06
2017-08-14T11:26:12.598Z,101424.06
2017-08-14T11:28:40.234Z,101413.84
2017-08-14T11:31:07.832Z,101410.50
2017-08-14T11:33:35.463Z,101409.55
2017-08-14T11:36:03.155Z,101399.87
2017-08-14T11:38:30.795Z,101398.02
2017-08-14T11:40:58.424Z,101396.37
2017-08-14T11:43:26.075Z,101405.16
2017-08-14T11:45:53.708Z,101399.80
2017-08-14T11:48:21.316Z,101398.64
2017-08-14T11:50:48.965Z,101394.63
2017-08-14T11:53:16.561Z,101387.55
2017-08-14T11:55:44.183Z,101393.27
2017-08-14T11:58:11.785Z,101394.28
2017-08-14T12:00:39.415Z,101388.63
2017-08-14T12:03:07.030Z,101382.10
2017-08-14T12:05:34.687Z,101375.83
2017-08-14T12:08:02.267Z,101378.63
2017-08-14T12:10:29.955Z,101367.80
2017-08-14T12:12:57.550Z,101366.88
2017-08-14T12:15:25.175Z,101367.56
2017-08-14T12:17:52.806Z,101359.25
2017-08-14T12:20:20.434Z,101356.23
2017-08-14T12:22:48.047Z,101355.48
2017-08-14T12:25:15.718Z,101347.31
2017-08-14T12:27:43.323Z,101349.62
2017-08-14T12:30:10.915Z,101352.68
2017-08-14T12:32:38.582Z,101352.76
2017-08-14T12:35:06.171Z,101355.25
2017-08-14T12:37:33.787Z,101345.93
2017-08-14T12:40:01.434Z,101344.48
2017-08-14T12:42:29.031Z,101350.09
2017-08-14T12:44:56.622Z,101344.03
2017-08-14T12:47:24.246Z,101343.64
2017-08-14T12:49:51.835Z,101344.15
2017-08-14T12:52:19.506Z,101335.06
2017-08-14T12:54:47.083Z,101327.03
2017-08-14T12:57:14.782Z,101328.39
2017-08-14T12:59:42.379Z,101327.03
2017-08-14T13:02:10.015Z,101328.18
2017-08-14T13:04:37.606Z,101327.45
2017-08-14T13:07:05.302Z,101321.61
2017-08-14T13:09:32.934Z,101312.50
2017-08-14T13:12:02.243Z,101310.98
2017-08-14T13:14:29.836Z,101311.84
2017-08-14T13:16:57.467Z,101303.69
2017-08-14T13:19:25.054Z,101303.16
2017-08-14T13:21:52.746Z,101303.05
2017-08-14T13:24:20.335Z,101306.84
2017-08-14T13:26:47.969Z,101300.66
2017-08-14T13:29:15.604Z,101302.95
2017-08-14T13:31:43.236Z,101294.91
2017-08-14T13:34:10.843Z,101297.77
2017-08-14T13:36:38.545Z,101293.50
2017-08-14T13:39:06.140Z,101289.36
2017-08-14T13:41:33.784Z,101288.22
2017-08-14T13:44:01.387Z,101285.60
2017-08-14T13:46:29.017Z,101285.38
2017-08-14T13:48:56.606Z,101276.83
2017-08-14T13:51:24.270Z,101279.50
2017-08-14T13:53:51.867Z,101279.34
2017-08-14T13:56:19.503Z,101276.14
2017-08-14T13:58:47.091Z,101276.72
2017-08-14T14:01:14.706Z,101273.28
2017-08-14T14:03:42.291Z,101275.77
2017-08-14T14:06:09.912Z,101278.59
2017-08-14T14:08:37.515Z,101275.27
2017-08-14T14:11:05.157Z,101276.16
2017-08-14T14:13:32.738Z,101266.54
2017-08-14T14:16:00.386Z,101263.54
2017-08-14T14:18:27.986Z,101254.23
2017-08-14T14:20:55.580Z,101251.11
2017-08-14T14:23:23.244Z,101252.14
2017-08-14T14:25:50.842Z,101248.62
2017-08-14T14:28:18.472Z,101247.61
2017-08-14T14:30:46.070Z,101243.00
2017-08-14T14:33:13.725Z,101239.27
2017-08-14T14:35:41.329Z,101235.44
2017-08-14T14:38:08.947Z,101231.34
2017-08-14T14:40:36.553Z,101234.89
2017-08-14T14:43:04.174Z,101231.80
2017-08-14T14:45:31.759Z,101230.98
2017-08-14T14:47:59.375Z,101225.41
2017-08-14T14:50:27.042Z,101230.61
2017-08-14T14:52:54.663Z,101224.58
2017-08-14T14:55:22.255Z,101226.22
2017-08-14T14:57:49.873Z,101220.88
2017-08-14T15:00:17.470Z,101218.97
2017-08-14T15:02:45.095Z,101215.92
2017-08-14T15:05:12.706Z,101221.62
2017-08-14T15:07:40.323Z,101217.39
2017-08-14T15:10:08.009Z,101221.19
2017-08-14T15:12:35.647Z,101212.77
2017-08-14T15:15:03.307Z,101212.59
2017-08-14T15:17:30.955Z,101212.38
2017-08-14T15:19:58.563Z,101212.83
2017-08-14T15:22:26.207Z,101204.09
2017-08-14T15:24:53.815Z,101197.89
2017-08-14T15:27:21.427Z,101201.03
2017-08-14T15:29:49.038Z,101191.99
2017-08-14T15:32:16.686Z,101197.36
2017-08-14T15:34:44.285Z,101189.86
2017-08-14T15:37:11.875Z,101190.83
2017-08-14T15:39:39.494Z,101192.77
2017-08-14T15:42:07.094Z,101185.59
2017-08-14T15:44:34.731Z,101180.93
2017-08-14T15:47:02.330Z,101176.58
2017-08-14T15:49:29.949Z,101178.66
2017-08-14T15:51:57.621Z,101181.06
2017-08-14T15:54:25.258Z,101184.27
2017-08-14T15:56:52.841Z,101187.93
2017-08-14T15:59:20.498Z,101183.47
2017-08-14T16:01:48.124Z,101181.64
2017-08-14T16:04:15.760Z,101177.12
2017-08-14T16:06:43.366Z,101183.43
2017-08-14T16:09:11.042Z,101179.39
2017-08-14T16:11:38.641Z,101172.10
2017-08-14T16:14:06.263Z,101169.30
2017-08-14T16:16:33.899Z,101168.27
2017-08-14T16:19:01.543Z,101167.14
2017-08-14T16:21:29.138Z,101162.84
2017-08-14T16:23:56.771Z,101162.98
2017-08-14T16:26:24.371Z,101163.53
2017-08-14T16:28:52.013Z,101155.75
2017-08-14T16:31:19.612Z,101153.81
2017-08-14T16:33:47.235Z,101156.12
2017-08-14T16:36:14.831Z,101158.86
2017-08-14T16:38:42.454Z,101149.27
2017-08-14T16:41:10.054Z,101143.50
2017-08-14T16:43:37.722Z,101139.66
2017-08-14T16:46:05.308Z,101135.77
2017-08-14T16:48:32.906Z,101134.30
2017-08-14T16:51:00.555Z,101138.09
2017-08-14T16:53:28.207Z,101135.19
2017-08-14T16:55:55.795Z,101131.09
2017-08-14T16:58:23.394Z,101134.97
2017-08-14T17:00:51.022Z,101128.14
2017-08-14T17:03:18.644Z,101127.11
2017-08-14T17:05:46.252Z,101120.70
2017-08-14T17:08:13.876Z,101119.25
2017-08-14T17:10:41.456Z,101112.55
2017-08-14T17:13:09.091Z,101114.78
2017-08-14T17:15:36.689Z,101113.55
2017-08-14T17:18:04.299Z,101117.90
2017-08-14T17:20:32.002Z,101116.68
2017-08-14T17:22:59.621Z,101119.02
2017-08-14T17:25:27.236Z,101126.47
2017-08-14T17:27:54.902Z,101118.72
2017-08-14T17:30:22.498Z,101123.17
2017-08-14T17:32:50.115Z,101121.73
2017-08-14T17:35:17.745Z,101126.77
2017-08-14T17:37:45.351Z,101119.66
2017-08-14T17:40:12.983Z,101123.55
2017-08-14T17:42:40.586Z,101120.48
2017-08-14T17:45:08.230Z,101122.64
2017-08-14T17:47:35.839Z,101120.68
2017-08-14T17:50:03.483Z,101119.90
2017-08-14T17:52:31.059Z,101122.74
2017-08-14T17:54:58.702Z,101124.75
2017-08-14T17:57:26.287Z,101126.09
2017-08-14T17:59:53.918Z,101121.47
2017-08-14T18:02:21.653Z,101126.09
2017-08-14T18:04:49.282Z,101124.73
2017-08-14T18:07:16.879Z,101125.09
2017-08-14T18:09:44.577Z,101116.97
2017-08-14T18:12:12.572Z,101118.97
2017-08-14T18:14:40.191Z,101119.83
2017-08-14T18:17:07.791Z,101123.78
2017-08-14T18:19:35.423Z,101124.20
2017-08-14T18:22:03.030Z,101125.81
2017-08-14T18:24:30.646Z,101125.87
2017-08-14T18:26:58.269Z,101126.05
2017-08-14T18:29:25.895Z,101130.42
2017-08-14T18:31:53.498Z,101122.90
2017-08-14T18:34:21.134Z,101125.48
2017-08-14T18:36:48.794Z,101123.47
2017-08-14T18:39:16.405Z,101122.48
2017-08-14T18:41:44.117Z,101125.10
2017-08-14T18:44:11.894Z,101125.85
2017-08-14T18:46:39.504Z,101130.17
2017-08-14T18:49:07.104Z,101127.05
2017-08-14T18:51:34.727Z,101122.64
2017-08-14T18:54:02.333Z,101127.06
2017-08-14T18:56:29.965Z,101135.91
2017-08-14T18:58:57.606Z,101136.72
2017-08-14T19:01:25.215Z,101132.78
2017-08-14T19:03:52.853Z,101131.77
2017-08-14T19:06:20.449Z,101132.67
2017-08-14T19:08:49.688Z,101132.44
2017-08-14T19:11:15.762Z,101137.98
2017-08-14T19:13:43.357Z,101138.16
2017-08-14T19:16:11.028Z,101145.98
2017-08-14T19:18:38.723Z,101143.86
2017-08-14T19:21:06.359Z,101154.43
2017-08-14T19:23:33.949Z,101152.86
2017-08-14T19:26:01.585Z,101145.94
2017-08-14T19:28:29.251Z,101150.05
2017-08-14T19:30:56.875Z,101153.80
2017-08-14T19:33:24.477Z,101146.41
2017-08-14T19:35:52.152Z,101139.92
2017-08-14T19:38:19.752Z,101145.87
2017-08-14T19:40:47.353Z,101144.91
2017-08-14T19:43:14.978Z,101144.16
2017-08-14T19:45:42.571Z,101144.02
2017-08-14T19:48:10.210Z,101148.40
2017-08-14T19:50:37.887Z,101151.05
2017-08-14T19:53:05.530Z,101148.23
2017-08-14T19:55:33.135Z,101147.50
2017-08-14T19:58:00.767Z,101149.08
2017-08-14T20:00:28.374Z,101150.32
2017-08-14T20:02:56.114Z,101145.30
2017-08-14T20:05:23.746Z,101146.67
2017-08-14T20:07:51.404Z,101146.56
2017-08-14T20:10:19.084Z,101144.89
2017-08-14T20:12:46.746Z,101143.52
2017-08-14T20:15:14.339Z,101143.62
2017-08-14T20:17:41.974Z,101138.02
2017-08-14T20:20:09.595Z,101142.64
2017-08-14T20:22:37.228Z,101138.64
2017-08-14T20:25:04.911Z,101138.47
2017-08-14T20:27:32.572Z,101141.52
2017-08-14T20:30:00.171Z,101144.28
2017-08-14T20:32:27.798Z,101146.17
2017-08-14T20:34:55.393Z,101151.78
2017-08-14T20:37:23.054Z,101150.06
2017-08-14T20:39:50.652Z,101152.28
2017-08-14T20:42:18.239Z,101154.07
2017-08-14T20:44:45.862Z,101153.67
2017-08-14T20:47:13.477Z,101152.63
2017-08-14T20:49:41.089Z,101155.52
2017-08-14T20:52:08.715Z,101152.69
2017-08-14T20:54:36.335Z,101151.66
2017-08-14T20:57:03.977Z,101153.72
2017-08-14T20:59:31.581Z,101149.25
2017-08-14T21:01:59.218Z,101146.70
2017-08-14T21:04:26.830Z,101144.28
2017-08-14T21:06:54.523Z,101144.02
2017-08-14T21:09:22.113Z,101148.00
2017-08-14T21:11:49.750Z,101149.13
2017-08-14T21:14:17.340Z,101147.55
2017-08-14T21:16:44.977Z,101141.42
2017-08-14T21:19:12.567Z,101144.88
2017-08-14T21:21:40.202Z,101141.49
2017-08-14T21:24:07.817Z,101136.80
2017-08-14T21:26:35.433Z,101144.23
2017-08-14T21:29:03.062Z,101146.20
2017-08-14T21:31:30.683Z,101145.47
2017-08-14T21:33:58.278Z,101141.41
2017-08-14T21:36:25.898Z,101138.85
2017-08-14T21:38:53.500Z,101138.47
2017-08-14T21:41:21.118Z,101138.20
2017-08-14T21:43:48.726Z,101138.25
2017-08-14T21:46:16.331Z,101141.09
2017-08-14T21:48:43.965Z,101140.06
2017-08-14T21:51:11.554Z,101136.88
2017-08-14T21:53:39.197Z,101140.63
2017-08-14T21:56:06.786Z,101147.75
2017-08-14T21:58:34.413Z,101150.05
2017-08-14T22:01:02.011Z,101151.34
2017-08-14T22:03:29.642Z,101147.66
2017-08-14T22:05:57.238Z,101150.84
2017-08-14T22:08:24.879Z,101144.74
2017-08-14T22:10:52.492Z,101142.61
2017-08-14T22:13:20.172Z,101147.76
2017-08-14T22:15:47.801Z,101152.37
2017-08-14T22:18:15.426Z,101148.20
2017-08-14T22:20:43.059Z,101145.45
2017-08-14T22:23:10.678Z,101142.44
2017-08-14T22:25:38.321Z,101140.75
2017-08-14T22:28:06.022Z,101137.77
2017-08-14T22:30:33.658Z,101139.88
2017-08-14T22:33:01.253Z,101140.30
2017-08-14T22:35:28.882Z,101136.39
2017-08-14T22:37:56.479Z,101135.89
2017-08-14T22:40:24.182Z,101135.77
2017-08-14T22:42:51.782Z,101133.95
2017-08-14T22:45:19.409Z,101131.47
2017-08-14T22:47:47.011Z,101125.78
2017-08-14T22:50:14.671Z,101130.38
2017-08-14T22:52:42.266Z,101131.11
2017-08-14T22:55:09.914Z,101121.68
2017-08-14T22:57:37.503Z,101130.45
2017-08-14T23:00:05.223Z,101124.66
2017-08-14T23:02:32.816Z,101124.15
2017-08-14T23:05:00.447Z,101125.11
2017-08-14T23:07:28.041Z,101126.81
2017-08-14T23:09:55.623Z,101119.53
2017-08-14T23:12:23.242Z,101112.55
2017-08-14T23:14:50.946Z,101114.45
2017-08-14T23:17:18.575Z,101119.03
2017-08-14T23:19:46.206Z,101113.45
2017-08-14T23:22:13.863Z,101109.94
2017-08-14T23:24:41.458Z,101113.94
2017-08-14T23:27:09.079Z,101113.20
2017-08-14T23:29:36.718Z,101105.83
2017-08-14T23:32:04.355Z,101104.05
2017-08-14T23:34:31.943Z,101109.77
2017-08-14T23:36:59.568Z,101109.97
2017-08-14T23:39:27.283Z,101114.72
2017-08-14T23:41:54.906Z,101113.69
2017-08-14T23:44:22.494Z,101107.48
2017-08-14T23:46:50.191Z,101114.40
2017-08-14T23:49:17.798Z,101114.02
2017-08-14T23:51:45.387Z,101109.68
2017-08-14T23:54:13.030Z,101107.45
2017-08-14T23:56:40.611Z,101108.82
2017-08-14T23:59:08.230Z,101109.52
